Time;durP1;ratioP1;P1;durP2;ratioP2;P2;SDS_P1;SDS_P2;PMS_P1;PMS_P2;Temp;Humidity;BMP_temperature;BMP_pressure;BME280_temperature;BME280_humidity;BME280_pressure;Samples;Min_cycle;Max_cycle;Signal;HPM_P1;HPM_P2
2023/07/23 00:01:19;;;;;;;9.40;3.90;;;;;;;15.87;100.00;98483.19;5025806;28;20184;-75
2023/07/23 00:03:44;;;;;;;7.53;3.95;;;;;;;15.88;100.00;98482.13;5032213;28;20028;-74
2023/07/23 00:06:10;;;;;;;4.75;2.72;;;;;;;15.81;100.00;98488.81;5023146;28;20026;-73
2023/07/23 00:08:35;;;;;;;5.53;3.58;;;;;;;15.66;100.00;98492.03;5010823;28;20117;-74
2023/07/23 00:11:01;;;;;;;8.98;3.50;;;;;;;15.57;100.00;98475.25;5008584;28;20076;-74
2023/07/23 00:13:27;;;;;;;9.43;3.42;;;;;;;15.50;100.00;98472.66;5025724;28;20071;-73
2023/07/23 00:15:52;;;;;;;6.68;3.20;;;;;;;15.59;100.00;98485.91;5012312;28;20030;-74
2023/07/23 00:18:17;;;;;;;5.22;2.90;;;;;;;15.60;100.00;98491.13;5012696;28;20533;-74
2023/07/23 00:20:42;;;;;;;7.25;3.00;;;;;;;15.48;100.00;98502.09;5007138;28;20035;-74
2023/07/23 00:23:08;;;;;;;5.70;2.67;;;;;;;15.36;100.00;98501.28;5023722;28;20072;-74
2023/07/23 00:25:33;;;;;;;5.22;2.70;;;;;;;15.33;100.00;98499.06;5023039;28;20022;-74
2023/07/23 00:27:58;;;;;;;4.32;2.72;;;;;;;15.21;100.00;98484.63;5019202;28;20860;-74
2023/07/23 00:30:23;;;;;;;13.20;2.72;;;;;;;15.18;100.00;98491.38;5023395;28;20026;-74
2023/07/23 00:32:49;;;;;;;8.77;3.22;;;;;;;15.18;100.00;98496.00;5019052;28;20018;-74
2023/07/23 00:35:14;;;;;;;5.00;2.88;;;;;;;15.12;100.00;98498.63;5031176;28;20031;-73
2023/07/23 00:37:40;;;;;;;6.07;2.90;;;;;;;15.03;100.00;98488.34;5011297;28;20026;-74
2023/07/23 00:40:05;;;;;;;5.72;2.78;;;;;;;15.02;100.00;98494.88;5019425;28;20037;-74
2023/07/23 00:42:31;;;;;;;5.07;2.47;;;;;;;14.90;100.00;98481.25;5019733;28;20022;-74
2023/07/23 00:44:56;;;;;;;7.93;3.30;;;;;;;14.94;100.00;98487.88;5012522;28;20030;-74
2023/07/23 00:47:21;;;;;;;6.80;2.78;;;;;;;14.84;100.00;98493.94;5015054;28;20104;-74
2023/07/23 00:49:47;;;;;;;5.45;3.28;;;;;;;14.86;100.00;98490.97;5007283;28;20030;-74
2023/07/23 00:52:14;;;;;;;7.40;3.13;;;;;;;14.79;100.00;98493.00;5011430;28;20037;-74
2023/07/23 00:54:40;;;;;;;7.53;3.28;;;;;;;14.83;100.00;98492.28;5008534;28;20032;-74
2023/07/23 00:57:07;;;;;;;11.65;3.78;;;;;;;14.77;100.00;98493.22;5011543;28;20021;-74
2023/07/23 00:59:33;;;;;;;7.45;3.63;;;;;;;14.69;100.00;98494.41;5014953;28;20029;-74
2023/07/23 01:01:59;;;;;;;5.50;3.03;;;;;;;14.67;100.00;98504.72;5023652;28;20605;-74
2023/07/23 01:04:26;;;;;;;8.38;2.78;;;;;;;14.67;100.00;98493.84;5025501;28;20034;-74
2023/07/23 01:06:53;;;;;;;6.63;3.17;;;;;;;14.51;100.00;98475.44;5011782;28;20030;-74
2023/07/23 01:09:20;;;;;;;8.02;3.00;;;;;;;14.53;100.00;98489.69;5007394;28;20109;-74
2023/07/23 01:11:46;;;;;;;6.32;2.80;;;;;;;14.58;100.00;98487.09;5013621;28;20053;-74
2023/07/23 01:14:12;;;;;;;5.18;2.97;;;;;;;14.55;100.00;98481.28;5027380;28;20033;-74
2023/07/23 01:16:37;;;;;;;4.28;3.03;;;;;;;14.64;100.00;98491.56;5013810;28;20506;-74
2023/07/23 01:19:03;;;;;;;4.38;2.53;;;;;;;14.68;100.00;98481.06;5011822;28;20022;-74
2023/07/23 01:21:29;;;;;;;10.07;3.08;;;;;;;14.65;100.00;98487.78;4995875;28;20034;-74
2023/07/23 01:23:55;;;;;;;3.75;2.38;;;;;;;14.51;100.00;98478.16;5006403;28;20029;-74
2023/07/23 01:26:21;;;;;;;4.95;2.72;;;;;;;14.53;100.00;98483.41;5010170;28;20391;-74
2023/07/23 01:28:46;;;;;;;5.70;3.00;;;;;;;14.48;100.00;98474.03;5012039;28;20029;-74
2023/07/23 01:31:12;;;;;;;6.65;3.05;;;;;;;14.42;100.00;98471.44;5012541;28;20024;-74
2023/07/23 01:33:39;;;;;;;9.20;2.50;;;;;;;14.42;100.00;98471.44;5013178;28;20041;-74
2023/07/23 01:36:05;;;;;;;4.95;2.28;;;;;;;14.39;100.00;98471.91;5001202;28;20025;-74
2023/07/23 01:38:31;;;;;;;8.60;2.95;;;;;;;14.28;100.00;98453.66;5011095;28;20026;-74
2023/07/23 01:40:57;;;;;;;5.78;2.80;;;;;;;14.24;100.00;98454.13;5014669;28;20025;-74
2023/07/23 01:43:23;;;;;;;4.35;2.63;;;;;;;14.20;100.00;98463.00;5016498;28;20476;-74
2023/07/23 01:45:49;;;;;;;4.07;2.72;;;;;;;14.15;100.00;98455.56;5016102;28;20041;-74
2023/07/23 01:48:16;;;;;;;5.95;3.08;;;;;;;14.11;100.00;98473.41;5012079;28;20025;-74
2023/07/23 01:50:41;;;;;;;4.47;3.05;;;;;;;13.91;100.00;98445.69;5014638;28;20056;-74
2023/07/23 01:53:07;;;;;;;5.90;3.03;;;;;;;14.01;100.00;98457.66;5016380;28;20029;-74
2023/07/23 01:55:33;;;;;;;4.68;2.78;;;;;;;13.96;100.00;98465.72;5015092;28;20587;-74
2023/07/23 01:57:58;;;;;;;6.40;3.20;;;;;;;13.92;100.00;98469.94;5012804;28;20117;-74
2023/07/23 02:00:24;;;;;;;5.82;3.00;;;;;;;13.83;100.00;98474.06;5011312;28;20069;-74
2023/07/23 02:02:49;;;;;;;5.70;2.90;;;;;;;13.78;100.00;98469.34;5015162;28;20051;-74
2023/07/23 02:05:15;;;;;;;4.53;2.38;;;;;;;13.81;100.00;98471.59;5017611;28;20026;-74
2023/07/23 02:07:40;;;;;;;5.45;2.78;;;;;;;13.87;100.00;98453.50;5012903;28;20022;-74
2023/07/23 02:10:06;;;;;;;6.38;2.88;;;;;;;13.82;100.00;98461.53;5013840;28;20025;-74
2023/07/23 02:12:35;;;;;;;7.63;3.13;;;;;;;13.80;100.00;98464.47;5015284;28;20033;-74
2023/07/23 02:15:00;;;;;;;5.18;2.90;;;;;;;13.73;100.00;98463.75;5009725;28;20026;-74
2023/07/23 02:17:25;;;;;;;4.47;2.67;;;;;;;13.73;100.00;98462.94;5014268;28;20380;-74
2023/07/23 02:19:51;;;;;;;5.28;3.38;;;;;;;13.73;100.00;98469.19;5014894;28;20025;-74
2023/07/23 02:22:17;;;;;;;3.83;2.55;;;;;;;13.65;100.00;98469.53;5012318;28;20116;-74
2023/07/23 02:24:42;;;;;;;5.43;2.80;;;;;;;13.68;100.00;98471.78;5010463;28;20428;-74
2023/07/23 02:27:08;;;;;;;6.13;2.90;;;;;;;13.55;100.00;98448.34;5006886;28;20030;-74
2023/07/23 02:29:33;;;;;;;8.45;3.00;;;;;;;13.72;100.00;98462.09;5014339;28;20025;-74
2023/07/23 02:31:58;;;;;;;4.63;2.85;;;;;;;13.73;100.00;98476.53;5040196;22;20034;-65
2023/07/23 02:34:28;;;;;;;10.23;3.42;;;;;;;13.72;100.00;98470.25;5040507;28;20040;-65
2023/07/23 02:36:54;;;;;;;6.32;3.08;;;;;;;13.69;100.00;98470.72;5027189;28;20140;-65
2023/07/23 02:39:19;;;;;;;5.18;2.80;;;;;;;13.62;100.00;98469.16;5035759;28;20036;-65
2023/07/23 02:41:45;;;;;;;4.85;2.45;;;;;;;13.59;100.00;98468.53;5032255;28;20034;-65
2023/07/23 02:44:12;;;;;;;6.30;3.13;;;;;;;13.61;100.00;98472.94;5031019;28;20539;-65
2023/07/23 02:46:37;;;;;;;7.82;2.95;;;;;;;13.85;100.00;98473.84;5028685;28;20502;-64
2023/07/23 02:49:04;;;;;;;8.10;3.60;;;;;;;13.87;100.00;98477.97;5026231;28;20030;-64
2023/07/23 02:51:30;;;;;;;5.22;2.95;;;;;;;13.78;100.00;98474.78;5030427;28;20072;-64
2023/07/23 02:53:56;;;;;;;7.50;3.80;;;;;;;13.75;100.00;98469.81;5016555;28;20046;-64
2023/07/23 02:56:21;;;;;;;6.53;3.60;;;;;;;13.59;100.00;98473.16;5029868;28;20054;-64
2023/07/23 02:58:46;;;;;;;5.60;3.30;;;;;;;13.46;100.00;98478.78;5025349;28;20029;-65
2023/07/23 03:01:12;;;;;;;9.80;3.47;;;;;;;13.37;100.00;98484.53;5026579;28;20033;-65
2023/07/23 03:03:37;;;;;;;8.13;3.38;;;;;;;13.34;100.00;98481.47;5029639;28;20484;-65
2023/07/23 03:06:06;;;;;;;4.90;2.90;;;;;;;13.36;100.00;98490.19;5034078;28;20037;-66
2023/07/23 03:08:31;;;;;;;6.45;2.70;;;;;;;13.29;100.00;98484.84;5027694;28;20075;-66
2023/07/23 03:10:57;;;;;;;6.75;2.88;;;;;;;13.24;100.00;98479.25;5030782;28;20033;-65
2023/07/23 03:13:22;;;;;;;8.52;2.95;;;;;;;13.19;100.00;98484.53;5030506;28;20164;-65
2023/07/23 03:15:47;;;;;;;7.15;2.92;;;;;;;13.20;100.00;98478.03;5026635;28;20597;-65
2023/07/23 03:18:13;;;;;;;5.25;3.17;;;;;;;13.17;100.00;98486.63;5024512;28;20477;-65
2023/07/23 03:20:38;;;;;;;5.95;3.10;;;;;;;13.08;100.00;98485.31;5024266;28;20576;-65
2023/07/23 03:23:04;;;;;;;7.63;3.30;;;;;;;13.07;100.00;98487.19;5022389;28;20120;-60
2023/07/23 03:25:29;;;;;;;4.82;2.85;;;;;;;13.05;100.00;98486.59;5030633;28;20383;-60
2023/07/23 03:27:59;;;;;;;4.88;2.85;;;;;;;13.04;100.00;98478.66;5032163;28;20026;-61
2023/07/23 03:30:24;;;;;;;4.85;3.17;;;;;;;13.03;100.00;98480.53;5023412;28;20037;-60
2023/07/23 03:32:49;;;;;;;6.47;2.92;;;;;;;13.00;100.00;98493.75;5018112;28;20430;-65
2023/07/23 03:35:15;;;;;;;5.57;3.20;;;;;;;12.99;100.00;98495.63;5023634;28;20017;-65
2023/07/23 03:37:40;;;;;;;5.15;2.95;;;;;;;12.98;100.00;98496.69;5030088;28;20028;-65
2023/07/23 03:40:06;;;;;;;4.45;2.55;;;;;;;12.99;100.00;98494.78;5029047;28;20071;-65
2023/07/23 03:42:32;;;;;;;5.50;2.75;;;;;;;12.93;100.00;98489.22;5021915;28;20029;-65
2023/07/23 03:44:57;;;;;;;5.20;2.88;;;;;;;12.98;100.00;98501.28;5021950;28;20464;-65
2023/07/23 03:47:22;;;;;;;5.07;2.85;;;;;;;12.97;100.00;98495.03;5027398;28;20026;-65
2023/07/23 03:49:48;;;;;;;6.30;2.92;;;;;;;13.02;100.00;98494.34;5027681;28;20064;-65
2023/07/23 03:52:14;;;;;;;7.90;2.67;;;;;;;13.08;100.00;98494.28;5028643;28;20025;-65
2023/07/23 03:54:40;;;;;;;6.53;3.05;;;;;;;13.22;100.00;98486.78;5026163;28;20060;-60
2023/07/23 03:57:06;;;;;;;8.68;2.65;;;;;;;13.24;100.00;98492.81;5030316;28;20025;-60
2023/07/23 03:59:40;;;;;;;8.68;3.15;;;;;;;13.25;100.00;98486.31;5026290;28;20071;-61
2023/07/23 04:02:06;;;;;;;4.38;2.53;;;;;;;13.29;100.00;98486.75;5023624;28;20033;-60
2023/07/23 04:04:32;;;;;;;5.60;2.95;;;;;;;13.33;100.00;98486.03;5029906;28;20048;-60
2023/07/23 04:06:57;;;;;;;4.53;2.60;;;;;;;13.36;100.00;98485.59;5030031;28;20484;-60
2023/07/23 04:09:23;;;;;;;5.15;2.75;;;;;;;13.38;100.00;98482.66;5034246;28;20070;-61
2023/07/23 04:11:48;;;;;;;4.35;2.50;;;;;;;13.36;100.00;98487.47;5034638;28;20048;-61
2023/07/23 04:14:13;;;;;;;4.05;2.47;;;;;;;13.36;100.00;98485.59;5028734;28;20053;-60
2023/07/23 04:16:39;;;;;;;3.78;2.67;;;;;;;13.47;100.00;98486.72;5022737;28;20068;-60
2023/07/23 04:19:04;;;;;;;5.57;2.30;;;;;;;13.59;100.00;98489.47;5033391;28;20362;-60
2023/07/23 04:21:30;;;;;;;5.65;2.53;;;;;;;13.72;100.00;98491.16;5033864;28;20124;-61
2023/07/23 04:23:57;;;;;;;5.13;2.30;;;;;;;13.88;100.00;98492.41;5032116;28;20036;-60
2023/07/23 04:26:23;;;;;;;3.60;2.40;;;;;;;14.02;100.00;98496.59;5025245;28;20485;-64
2023/07/23 04:28:49;;;;;;;4.38;2.40;;;;;;;14.10;100.00;98487.25;5032252;28;20032;-64
2023/07/23 04:31:15;;;;;;;4.70;2.22;;;;;;;14.17;100.00;98486.09;5032468;28;20044;-64
2023/07/23 04:33:40;;;;;;;2.78;1.77;;;;;;;14.29;100.00;98479.81;5033350;28;20033;-64
2023/07/23 04:36:07;;;;;;;4.80;2.38;;;;;;;14.37;100.00;98477.56;5021061;28;20029;-64
2023/07/23 04:38:33;;;;;;;4.13;2.13;;;;;;;14.47;100.00;98486.00;5030624;28;20029;-64
2023/07/23 04:40:58;;;;;;;5.25;2.53;;;;;;;14.59;100.00;98488.75;5028816;28;20029;-64
2023/07/23 04:43:24;;;;;;;3.45;2.30;;;;;;;14.67;100.00;98480.22;5029133;28;20120;-63
2023/07/23 04:45:49;;;;;;;4.13;2.45;;;;;;;14.78;100.00;98481.28;5048781;28;20041;-64
2023/07/23 04:48:16;;;;;;;6.15;2.75;;;;;;;14.84;100.00;98483.03;5033851;28;20028;-64
2023/07/23 04:50:41;;;;;;;4.05;2.30;;;;;;;14.93;100.00;98482.66;5029127;28;20025;-64
2023/07/23 04:53:07;;;;;;;3.92;2.50;;;;;;;15.00;100.00;98483.38;5032719;28;20032;-64
2023/07/23 04:55:33;;;;;;;4.90;2.60;;;;;;;15.09;100.00;98484.63;5032690;28;20116;-64
2023/07/23 04:57:59;;;;;;;3.92;2.20;;;;;;;15.17;100.00;98475.25;5027001;28;20013;-64
2023/07/23 05:00:24;;;;;;;3.25;2.20;;;;;;;15.27;100.00;98483.66;5031661;28;20107;-64
2023/07/23 05:02:50;;;;;;;5.82;2.47;;;;;;;15.43;100.00;98482.91;5028721;28;20131;-64
2023/07/23 05:05:15;;;;;;;4.50;2.45;;;;;;;15.57;100.00;98478.00;5033150;28;20029;-63
2023/07/23 05:07:40;;;;;;;2.97;1.70;;;;;;;15.75;100.00;98479.72;5020666;28;21952;-64
2023/07/23 05:10:06;;;;;;;4.45;2.50;;;;;;;15.95;100.00;98480.06;5022419;28;20072;-64
2023/07/23 05:12:32;;;;;;;3.88;2.15;;;;;;;16.10;100.00;98484.97;5026445;28;20034;-64
2023/07/23 05:15:12;;;;;;;3.75;2.00;;;;;;;16.33;100.00;98481.25;5025249;28;20124;-64
2023/07/23 05:17:38;;;;;;;4.32;2.13;;;;;;;16.52;100.00;98481.81;5027958;28;20022;-64
2023/07/23 05:20:07;;;;;;;4.22;2.25;;;;;;;16.61;100.00;98479.47;5031252;28;20087;-64
2023/07/23 05:22:36;;;;;;;4.53;2.20;;;;;;;16.81;100.00;98482.53;5025208;28;20026;-63
2023/07/23 05:25:03;;;;;;;3.67;2.00;;;;;;;17.01;100.00;98484.75;5027568;28;20022;-64
2023/07/23 05:27:28;;;;;;;2.92;1.80;;;;;;;17.11;100.00;98485.94;5029425;28;20029;-64
2023/07/23 05:29:54;;;;;;;5.75;1.98;;;;;;;17.20;100.00;98479.78;5030085;28;20397;-64
2023/07/23 05:32:19;;;;;;;3.10;1.95;;;;;;;17.29;100.00;98475.53;5030249;28;20029;-64
2023/07/23 05:34:44;;;;;;;3.33;1.90;;;;;;;17.43;100.00;98480.59;5033231;28;20109;-64
2023/07/23 05:37:10;;;;;;;3.95;2.05;;;;;;;17.62;100.00;98475.63;5026829;28;20025;-64
2023/07/23 05:39:35;;;;;;;3.28;1.83;;;;;;;17.80;100.00;98471.72;5027876;28;20480;-63
2023/07/23 05:42:01;;;;;;;4.10;1.95;;;;;;;17.90;100.00;98480.03;5030787;28;20030;-64
2023/07/23 05:44:26;;;;;;;5.60;2.10;;;;;;;17.95;100.00;98472.69;5030169;28;20029;-64
2023/07/23 05:46:51;;;;;;;3.35;2.30;;;;;;;17.98;100.00;98479.56;5028483;28;20116;-64
2023/07/23 05:49:17;;;;;;;4.03;2.25;;;;;;;18.22;100.00;98473.75;5019561;28;20039;-64
2023/07/23 05:51:42;;;;;;;5.00;2.55;;;;;;;18.56;100.00;98479.78;5043637;28;20030;-64
2023/07/23 05:54:08;;;;;;;5.60;1.80;;;;;;;18.91;100.00;98486.59;5025214;28;20047;-65
2023/07/23 05:56:33;;;;;;;5.10;2.00;;;;;;;19.08;100.00;98475.47;5027782;28;20234;-67
2023/07/23 05:58:59;;;;;;;7.82;2.00;;;;;;;19.13;100.00;98473.56;5022091;28;20026;-64
2023/07/23 06:01:25;;;;;;;4.93;2.33;;;;;;;19.26;100.00;98481.28;5025792;28;20060;-65
2023/07/23 06:03:50;;;;;;;5.88;2.22;;;;;;;19.43;100.00;98480.25;5031304;28;20051;-64
2023/07/23 06:06:17;;;;;;;2.15;1.60;;;;;;;19.66;100.00;98476.22;5032018;28;20064;-64
2023/07/23 06:08:42;;;;;;;6.72;1.73;;;;;;;19.93;100.00;98471.34;5025398;28;20144;-63
2023/07/23 06:11:07;;;;;;;5.45;2.03;;;;;;;20.20;100.00;98478.53;5036101;28;20119;-63
2023/07/23 06:13:33;;;;;;;3.53;1.83;;;;;;;20.69;100.00;98477.13;5030601;28;20052;-64
2023/07/23 06:15:58;;;;;;;3.58;1.88;;;;;;;21.36;100.00;98473.09;5023084;28;20065;-64
2023/07/23 06:18:24;;;;;;;2.50;1.55;;;;;;;22.32;100.00;98470.06;5025284;28;20065;-64
2023/07/23 06:20:49;;;;;;;6.88;2.28;;;;;;;23.35;100.00;98467.91;5030608;28;20045;-64
2023/07/23 06:23:15;;;;;;;3.58;1.75;;;;;;;24.21;100.00;98472.53;5023256;28;20030;-64
2023/07/23 06:25:40;;;;;;;2.67;1.67;;;;;;;24.54;97.54;98473.38;5028039;28;20380;-65
2023/07/23 06:28:06;;;;;;;4.43;1.80;;;;;;;24.62;93.34;98485.69;5025342;28;20030;-64
2023/07/23 06:30:33;;;;;;;4.63;1.80;;;;;;;24.65;89.96;98468.50;5024909;28;20092;-64
2023/07/23 06:32:58;;;;;;;9.38;2.08;;;;;;;24.75;88.06;98468.31;5030650;28;20027;-64
2023/07/23 06:35:24;;;;;;;5.18;1.50;;;;;;;24.81;86.26;98469.03;5032624;28;20029;-64
2023/07/23 06:37:50;;;;;;;3.47;1.50;;;;;;;25.13;84.19;98471.75;5031748;28;20075;-64
2023/07/23 06:40:16;;;;;;;3.15;1.73;;;;;;;25.57;81.89;98478.63;5045860;28;20037;-63
2023/07/23 06:42:41;;;;;;;3.42;1.70;;;;;;;25.22;78.36;98471.88;5027466;28;20457;-63
2023/07/23 06:45:07;;;;;;;2.15;1.50;;;;;;;26.45;75.31;98474.66;5028166;28;20483;-63
2023/07/23 06:47:33;;;;;;;3.13;1.50;;;;;;;27.43;70.84;98465.41;5043769;28;20021;-64
2023/07/23 06:49:58;;;;;;;2.45;1.45;;;;;;;28.17;65.80;98466.50;5030613;28;20025;-64
2023/07/23 06:52:23;;;;;;;3.97;1.52;;;;;;;27.98;65.90;98464.00;5019968;28;20559;-64
2023/07/23 06:54:49;;;;;;;2.55;1.70;;;;;;;26.97;66.85;98477.78;5025003;28;20029;-64
2023/07/23 06:57:14;;;;;;;4.53;1.67;;;;;;;27.96;65.83;98477.44;5029923;28;20053;-64
2023/07/23 06:59:41;;;;;;;2.67;1.70;;;;;;;30.23;58.57;98472.72;5023375;28;20049;-64
2023/07/23 07:02:06;;;;;;;3.45;1.50;;;;;;;29.23;56.00;98479.88;5029697;28;20079;-65
2023/07/23 07:04:32;;;;;;;4.10;1.63;;;;;;;30.28;55.86;98468.91;5020403;28;20383;-65
2023/07/23 07:06:57;;;;;;;2.85;1.65;;;;;;;29.62;55.90;98470.31;5028945;28;20026;-65
2023/07/23 07:09:23;;;;;;;4.18;1.70;;;;;;;28.52;59.19;98475.63;5030804;28;20017;-66
2023/07/23 07:11:50;;;;;;;3.47;1.70;;;;;;;27.11;59.99;98477.66;5025867;28;20425;-65
2023/07/23 07:14:15;;;;;;;3.28;1.63;;;;;;;26.30;63.42;98473.06;5017488;28;20026;-65
2023/07/23 07:16:41;;;;;;;2.63;1.60;;;;;;;26.87;65.70;98472.50;5030072;28;20033;-65
2023/07/23 07:19:06;;;;;;;2.45;1.40;;;;;;;28.31;63.19;98477.44;5028492;28;20389;-65
2023/07/23 07:21:31;;;;;;;2.47;1.65;;;;;;;32.72;53.07;98475.66;5031077;28;20033;-65
2023/07/23 07:23:57;;;;;;;2.22;1.58;;;;;;;36.61;44.42;98466.84;5030358;28;20425;-65
2023/07/23 07:26:22;;;;;;;2.80;1.60;;;;;;;39.28;38.99;98465.22;5028160;28;20026;-64
2023/07/23 07:28:48;;;;;;;2.88;1.60;;;;;;;40.72;34.99;98454.38;5026295;28;20029;-65
2023/07/23 07:31:15;;;;;;;3.95;1.60;;;;;;;39.93;33.81;98453.84;5022708;28;20071;-65
2023/07/23 07:33:40;;;;;;;2.38;1.40;;;;;;;41.34;32.53;98455.56;5024222;28;20531;-65
2023/07/23 07:36:06;;;;;;;1.67;1.27;;;;;;;43.56;30.49;98455.56;5019224;28;20037;-66
2023/07/23 07:38:31;;;;;;;2.38;1.20;;;;;;;42.79;29.72;98451.53;5029011;28;20053;-65
2023/07/23 07:40:57;;;;;;;2.10;1.48;;;;;;;43.08;29.67;98449.03;5030025;28;20461;-66
2023/07/23 07:43:23;;;;;;;2.45;1.50;;;;;;;43.82;28.46;98453.09;5028973;28;20574;-66
2023/07/23 07:45:52;;;;;;;8.13;1.80;;;;;;;44.00;27.97;98447.88;5029839;28;20104;-66
2023/07/23 07:48:20;;;;;;;1.38;1.20;;;;;;;42.75;28.05;98445.03;5031812;28;20025;-66
2023/07/23 07:51:06;;;;;;;2.10;1.30;;;;;;;42.03;29.31;98439.50;5019298;28;20033;-66
2023/07/23 07:53:34;;;;;;;4.40;1.77;;;;;;;43.08;28.61;98440.50;5032934;28;20045;-66
2023/07/23 07:56:01;;;;;;;4.63;1.45;;;;;;;41.60;28.99;98440.72;5028581;28;20035;-66
2023/07/23 07:58:27;;;;;;;1.58;1.10;;;;;;;40.51;29.70;98443.94;5028613;28;20033;-66
2023/07/23 08:00:57;;;;;;;2.60;1.33;;;;;;;38.17;32.32;98438.69;5031535;28;20350;-66
2023/07/23 08:03:24;;;;;;;2.10;1.52;;;;;;;37.58;32.11;98436.72;5026327;28;20034;-66
2023/07/23 08:05:51;;;;;;;2.83;1.55;;;;;;;35.91;34.42;98439.34;5026805;28;20021;-65
2023/07/23 08:08:28;;;;;;;2.35;1.63;;;;;;;34.75;35.32;98441.47;5023491;28;20034;-65
2023/07/23 08:10:55;;;;;;;3.65;1.50;;;;;;;33.99;36.38;98444.72;5031385;28;20033;-66
2023/07/23 08:13:22;;;;;;;2.03;1.30;;;;;;;33.20;37.57;98444.88;5032541;28;20159;-65
2023/07/23 08:15:47;;;;;;;2.03;1.40;;;;;;;34.21;37.04;98446.00;5026341;28;20032;-66
2023/07/23 08:18:14;;;;;;;1.83;1.50;;;;;;;35.61;35.58;98444.94;5029122;28;20392;-66
2023/07/23 08:20:40;;;;;;;2.40;1.52;;;;;;;36.10;35.42;98441.25;5027412;28;20029;-66
2023/07/23 08:23:06;;;;;;;4.25;1.40;;;;;;;36.97;34.73;98438.19;5034372;28;20022;-66
2023/07/23 08:25:32;;;;;;;1.85;1.25;;;;;;;35.65;34.71;98437.38;5031476;28;20045;-66
2023/07/23 08:28:00;;;;;;;2.80;1.80;;;;;;;34.58;36.58;98442.75;5029470;28;20022;-66
2023/07/23 08:30:27;;;;;;;2.78;1.25;;;;;;;34.72;36.46;98442.25;5027841;28;20124;-66
2023/07/23 08:32:55;;;;;;;2.28;1.50;;;;;;;34.87;36.71;98415.19;5053582;22;20057;-74
2023/07/23 08:35:20;;;;;;;1.73;1.33;;;;;;;34.74;36.50;98414.56;5039301;28;20474;-74
2023/07/23 08:37:46;;;;;;;2.72;1.48;;;;;;;34.98;36.57;98435.03;5061860;28;20036;-73
2023/07/23 08:40:12;;;;;;;2.25;1.48;;;;;;;35.32;35.92;98438.88;5045809;28;20027;-73
2023/07/23 08:42:56;;;;;;;3.47;1.30;;;;;;;35.61;36.21;98448.59;5046791;28;20049;-74
2023/07/23 08:45:30;;;;;;;2.25;1.42;;;;;;;34.52;35.89;98449.84;5030792;28;20033;-73
2023/07/23 08:48:19;;;;;;;1.95;1.30;;;;;;;33.17;38.89;98435.22;5031908;28;20483;-73
2023/07/23 08:50:50;;;;;;;5.38;1.60;;;;;;;31.74;40.28;98438.75;5024807;28;20395;-73
2023/07/23 08:53:17;;;;;;;2.33;1.40;;;;;;;31.50;41.30;98432.03;5031283;28;20026;-73
2023/07/23 08:55:45;;;;;;;1.85;1.42;;;;;;;30.17;42.96;98443.34;5030992;28;20032;-73
2023/07/23 08:58:16;;;;;;;2.50;1.47;;;;;;;31.01;42.28;98434.81;5029420;28;20033;-73
2023/07/23 09:00:43;;;;;;;3.20;1.63;;;;;;;32.72;40.96;98432.81;5024222;28;20029;-73
2023/07/23 09:03:10;;;;;;;3.55;1.38;;;;;;;34.19;38.44;98431.56;5029338;28;20036;-75
2023/07/23 09:05:35;;;;;;;1.58;1.13;;;;;;;35.85;36.77;98435.25;5026287;28;20112;-71
2023/07/23 09:08:02;;;;;;;1.85;1.35;;;;;;;36.11;36.35;98435.22;5032926;28;20179;-73
2023/07/23 09:10:27;;;;;;;2.33;1.70;;;;;;;35.19;37.09;98421.41;5017434;28;20483;-73
2023/07/23 09:12:53;;;;;;;3.20;1.17;;;;;;;33.87;37.37;98418.78;5031310;28;20028;-73
2023/07/23 09:15:18;;;;;;;2.15;1.30;;;;;;;31.79;39.28;98438.50;5049220;28;20112;-73
2023/07/23 09:17:48;;;;;;;1.48;1.05;;;;;;;33.55;38.17;98424.50;5044071;28;20032;-73
2023/07/23 09:20:19;;;;;;;1.73;1.00;;;;;;;33.91;37.27;98439.34;5030377;28;20028;-71
2023/07/23 09:22:48;;;;;;;1.60;0.98;;;;;;;32.29;38.99;98428.81;5044980;28;20025;-73
2023/07/23 09:25:14;;;;;;;2.85;0.90;;;;;;;31.31;40.29;98437.38;5033083;28;20060;-73
2023/07/23 09:27:42;;;;;;;1.95;1.00;;;;;;;30.12;41.67;98422.06;5039575;28;20025;-74
2023/07/23 09:30:07;;;;;;;1.33;1.00;;;;;;;30.91;41.35;98419.31;5046792;28;20112;-73
2023/07/23 09:32:33;;;;;;;2.03;0.98;;;;;;;31.06;41.12;98428.19;5025080;28;20120;-74
2023/07/23 09:34:59;;;;;;;2.55;1.10;;;;;;;31.34;40.14;98398.38;5031118;28;20094;-73
2023/07/23 09:37:28;;;;;;;2.25;1.00;;;;;;;32.60;39.00;98413.28;5033410;28;20032;-74
2023/07/23 09:39:57;;;;;;;1.88;0.77;;;;;;;32.09;39.05;98419.44;5046982;28;20390;-73
2023/07/23 09:42:23;;;;;;;1.35;0.88;;;;;;;32.84;38.61;98410.31;5032401;28;20100;-74
2023/07/23 09:44:49;;;;;;;3.25;1.35;;;;;;;32.61;39.28;98415.72;5032913;28;20025;-73
2023/07/23 09:47:15;;;;;;;1.35;0.98;;;;;;;31.77;39.46;98407.28;5030690;28;20025;-73
2023/07/23 09:49:41;;;;;;;1.58;0.95;;;;;;;31.94;39.97;98401.44;5031591;28;20454;-73
2023/07/23 09:52:08;;;;;;;1.73;0.90;;;;;;;33.14;38.01;98393.91;5025967;28;20026;-73
2023/07/23 09:54:35;;;;;;;2.38;0.90;;;;;;;34.25;36.27;98418.84;5028555;28;20248;-74
2023/07/23 09:57:02;;;;;;;1.33;0.80;;;;;;;34.82;35.71;98418.31;5029090;28;20029;-74
2023/07/23 09:59:27;;;;;;;1.67;0.93;;;;;;;33.73;36.88;98400.47;5027503;28;20462;-74
2023/07/23 10:01:54;;;;;;;1.48;0.85;;;;;;;32.25;37.97;98411.94;5026189;28;20030;-74
2023/07/23 10:04:22;;;;;;;1.10;0.85;;;;;;;34.16;36.47;98418.22;5022351;28;20056;-74
2023/07/23 10:06:48;;;;;;;1.40;0.90;;;;;;;32.76;38.63;98414.13;5028112;28;20539;-74
2023/07/23 10:09:14;;;;;;;2.95;0.85;;;;;;;33.94;37.47;98407.72;5032518;28;20260;-74
2023/07/23 10:11:39;;;;;;;4.28;1.20;;;;;;;33.38;38.09;98420.91;5026805;28;20887;-74
2023/07/23 10:14:04;;;;;;;2.50;1.13;;;;;;;33.49;36.37;98412.72;5026992;28;20040;-73
2023/07/23 10:16:37;;;;;;;1.90;0.90;;;;;;;31.63;38.53;98418.84;5026851;28;20025;-73
2023/07/23 10:19:07;;;;;;;1.92;1.13;;;;;;;31.19;39.14;98396.28;5029227;28;20079;-73
2023/07/23 10:21:36;;;;;;;1.38;0.98;;;;;;;31.83;38.73;98415.09;5029425;28;20037;-73
2023/07/23 10:24:03;;;;;;;1.60;1.10;;;;;;;31.30;39.03;98405.00;5044226;28;20096;-73
2023/07/23 10:26:40;;;;;;;1.98;1.10;;;;;;;30.51;39.80;98380.81;5028781;28;20026;-73
2023/07/23 10:29:11;;;;;;;2.85;1.27;;;;;;;29.33;41.70;98398.69;5021709;28;20072;-73
2023/07/23 10:31:41;;;;;;;2.47;0.95;;;;;;;29.28;42.02;98399.69;5024798;28;20025;-73
2023/07/23 10:34:26;;;;;;;2.53;1.00;;;;;;;29.58;42.53;98412.78;5025160;28;20029;-73
2023/07/23 10:37:14;;;;;;;1.50;1.00;;;;;;;30.25;41.60;98392.25;5018739;28;20044;-73
2023/07/23 10:39:46;;;;;;;1.85;1.15;;;;;;;30.99;41.00;98404.44;5023283;28;20029;-73
2023/07/23 10:42:44;;;;;;;4.20;0.90;;;;;;;30.22;41.58;98398.50;5024051;28;20090;-73
2023/07/23 10:45:14;;;;;;;2.23;1.10;;;;;;;31.89;39.92;98390.47;4993286;28;20057;-73
2023/07/23 10:47:46;;;;;;;1.73;1.00;;;;;;;31.45;40.19;98390.34;5024601;28;20017;-73
2023/07/23 10:50:13;;;;;;;4.28;1.50;;;;;;;34.93;36.84;98376.34;5038680;28;20387;-74
2023/07/23 10:52:38;;;;;;;1.92;1.35;;;;;;;37.94;33.58;98367.13;5019512;28;20021;-74
2023/07/23 10:55:04;;;;;;;2.38;1.20;;;;;;;40.20;31.23;98372.78;5046842;28;20018;-74
2023/07/23 10:57:30;;;;;;;1.60;1.00;;;;;;;40.97;29.83;98358.53;5022588;28;20029;-74
2023/07/23 10:59:56;;;;;;;1.33;0.85;;;;;;;40.70;29.98;98355.50;5025118;28;20026;-72
2023/07/23 11:02:25;;;;;;;1.30;1.00;;;;;;;40.24;29.97;98356.59;5030741;28;20028;-72
2023/07/23 11:04:51;;;;;;;2.20;1.13;;;;;;;38.83;30.75;98368.59;5024081;28;20494;-72
2023/07/23 11:07:26;;;;;;;1.77;1.23;;;;;;;35.75;33.86;98369.19;5020974;28;20036;-75
2023/07/23 11:09:54;;;;;;;1.80;1.15;;;;;;;39.24;31.91;98368.19;5025691;28;20030;-72
2023/07/23 11:12:21;;;;;;;1.40;1.08;;;;;;;40.64;30.28;98362.00;5022913;28;20025;-73
2023/07/23 11:14:47;;;;;;;1.50;1.00;;;;;;;39.67;31.18;98368.94;5022216;28;20104;-73
2023/07/23 11:17:13;;;;;;;1.23;0.80;;;;;;;40.37;30.56;98358.97;5022500;28;20159;-72
2023/07/23 11:19:45;;;;;;;1.67;1.02;;;;;;;42.17;29.33;98370.28;5024849;28;22511;-72
2023/07/23 11:22:12;;;;;;;2.22;1.42;;;;;;;40.05;29.86;98357.09;5019656;28;20029;-73
2023/07/23 11:24:38;;;;;;;1.10;1.00;;;;;;;41.54;29.11;98357.22;5019147;28;20045;-72
2023/07/23 11:27:04;;;;;;;2.13;1.05;;;;;;;42.08;28.71;98350.09;5021003;28;20768;-72